• Join FlightAware (Why Join?)
  • Login
  • US Flag 
05:57AM EDT


 

Airport Tracker/Info


-or-


 

Live Flight TrackerFlight Track Log ✈ GLA154 ✈ 27-Apr-2013 ✈ KIGM - KLAX

Flight Track Log - Related Links

Times and Time Zones

All times are in EDT time to prevent confusion due to time zone crossing. See the GLA154 flight status page for this flight to view local times or setup timezone preferences in your user account.

Time Position Orientation Groundspeed Altitude Reporting Facility
EDT Latitude Longitude Course Direction KTS MPH feet Rate Location/Type
10:06AM 35.1911 -114.0078 223° Southwest 204 235 7,300  Level Los Angeles Center
10:07AM 35.1550 -114.0519 225° Southwest 189 217 9,600 2,160 Climbing Los Angeles Center
10:08AM 35.1164 -114.0986 225° Southwest 192 221 11,700 1,980 Climbing Los Angeles Center
10:09AM 35.0756 -114.1506 226° Southwest 207 238 13,700 1,920 Climbing Los Angeles Center
10:10AM 35.0317 -114.2031 224° Southwest 220 253 15,700 1,920 Climbing Los Angeles Center
10:11AM 34.9806 -114.2650 225° Southwest 216 249 17,700 1,620 Climbing Los Angeles Center
10:12AM 34.9849 -114.2173 223° Southwest  Level FlightAware Approximate
10:12AM 34.9347 -114.3136 221° Southwest 216 249 19,100  Level Los Angeles Center
10:13AM 34.8931 -114.3739 230° Southwest 241 277 20,000 480 Climbing Los Angeles Center
10:14AM 34.8975 -114.4597 274° West 259 298 20,100  Climbing Los Angeles Center
10:15AM 34.9022 -114.5517 274° West 270 311 20,100 -60 Level Los Angeles Center
10:16AM 34.9011 -114.6481 269° West 281 323 20,000 -60 Descending Los Angeles Center
10:17AM 34.8989 -114.7442 268° West 283 326 20,000  Level Los Angeles Center
10:19AM 34.8961 -114.8428 268° West 287 330 20,000  Level Los Angeles Center
10:20AM 34.8936 -114.9419 268° West 291 335 20,000  Level Los Angeles Center
10:21AM 34.8925 -115.0614 269° West 292 336 20,000  Level Los Angeles Center
10:22AM 34.8833 -115.1797 265° West 293 337 20,000  Level Los Angeles Center
10:23AM 34.8747 -115.2792 264° West 294 338 20,000  Level Los Angeles Center
10:24AM 34.8622 -115.3789 261° West 296 341 20,000  Level Los Angeles Center
10:25AM 34.8475 -115.4756 260° West 294 338 20,000  Level Los Angeles Center
10:26AM 34.8319 -115.5764 259° West 299 344 20,000  Level Los Angeles Center
10:27AM 34.8319 -115.6722 270° West 295 339 20,000  Level Los Angeles Center
10:28AM 34.8314 -115.7714 270° West 293 337 20,000  Level Los Angeles Center
10:29AM 34.8364 -115.8683 274° West 290 334 20,000  Level Los Angeles Center
10:30AM 34.8306 -115.9828 266° West 284 327 20,000  Level Los Angeles Center
10:31AM 34.8222 -116.0775 264° West 283 326 20,000  Level Los Angeles Center
10:32AM 34.8167 -116.1731 266° West 283 326 20,000  Level Los Angeles Center
10:33AM 34.8117 -116.2664 266° West 281 323 20,000  Level Los Angeles Center
10:34AM 34.8042 -116.3417 263° West 280 322 20,100  Climbing Los Angeles Center
10:35AM 34.7978 -116.4561 266° West 284 327 20,000 -60 Descending Los Angeles Center
10:36AM 34.7861 -116.5525 262° West 288 331 20,000  Level Los Angeles Center
10:37AM 34.7825 -116.6542 268° West 298 343 20,000  Level Los Angeles Center
10:38AM 34.7789 -116.7728 268° West 295 339 20,100  Climbing Los Angeles Center
10:39AM 34.7739 -116.8725 267° West 295 339 20,000 -60 Descending Los Angeles Center
10:40AM 34.7647 -116.9744 264° West 296 341 20,000 -300 Level Los Angeles Center
10:41AM 34.7558 -117.0717 264° West 295 339 19,400 -720 Descending Los Angeles Center
10:42AM 34.7458 -117.1706 263° West 295 339 18,600 -840 Descending Los Angeles Center
10:43AM 34.7364 -117.2689 263° West 293 337 17,700 -840 Descending Los Angeles Center
10:44AM 34.7250 -117.3703 262° West 299 344 16,900 -840 Descending Los Angeles Center
10:45AM 34.7083 -117.4717 259° West 303 349 16,000 -780 Descending Los Angeles Center
10:46AM 34.6900 -117.5722 258° West 301 346 15,400 -660 Descending Los Angeles Center
10:47AM 34.6769 -117.6728 261° West 299 344 14,700 -840 Descending Los Angeles Center
10:49AM 34.6617 -117.7939 261° West 301 346 13,600 -1,080 Descending Los Angeles Center
10:50AM 34.6478 -117.9161 262° West 304 350 12,200 -1,380 Descending Los Angeles Center
10:51AM 34.6339 -118.0372 262° West 303 349 10,500 -1,200 Descending Los Angeles Center
10:52AM 34.5981 -118.1228 243° Southwest 280 322 9,500 -1,080 Descending Los Angeles Center
10:53AM 34.5392 -118.2197 234° Southwest 270 311 8,100 -720 Descending Los Angeles Center
10:54AM 34.4922 -118.2861 229° Southwest 261 300 8,100  Level Los Angeles Center
10:55AM 34.4386 -118.3347 217° Southwest 259 298 8,100 -120 Level Los Angeles Center
10:56AM 34.3667 -118.3492 189° South 260 299 7,900 -420 Descending Los Angeles Center
10:58AM 34.2817 -118.3444 177° South 268 308 7,200 -540 Descending Los Angeles Center
10:59AM 34.2003 -118.3078 160° South 263 303 6,800 -660 Descending Los Angeles Center
11:00AM 34.1192 -118.2719 160° South 259 298 5,900 -420 Descending Los Angeles Center
11:01AM 34.0631 -118.2494 162° South 221 254 6,000 -600 Climbing Los Angeles Center
11:02AM 34.0139 -118.2308 163° South 196 226 4,700 -1,200 Descending Los Angeles Center
11:03AM 33.9781 -118.2389 191° South 151 174 3,600 -1,020 Descending Los Angeles Center
11:04AM 33.9644 -118.2769 247° West 135 155 2,600 -840 Descending Los Angeles Center
11:05AM 33.9614 -118.3114 264° West 131 151 1,900 -840 Descending Los Angeles Center
11:06AM 33.9569 -118.3658 264° West 135 155 900 -900 Descending Los Angeles Center
11:07AM 33.9508 -118.4161 262° West 131 151 100 -780 Descending Los Angeles Center
11:09AM 33.9425 -118.4081 228° Southwest  Level Estimated